createdAt,value
2019-01-20T00:00:29.602Z,5.00
2019-01-20T00:02:57.950Z,5.63
2019-01-20T00:05:26.324Z,4.93
2019-01-20T00:07:54.592Z,5.50
2019-01-20T00:10:23.007Z,6.53
2019-01-20T00:12:51.389Z,5.63
2019-01-20T00:15:21.288Z,5.50
2019-01-20T00:17:49.598Z,6.50
2019-01-20T00:20:17.955Z,6.60
2019-01-20T00:22:46.246Z,5.67
2019-01-20T00:25:14.509Z,5.93
2019-01-20T00:27:42.935Z,5.10
2019-01-20T00:30:18.375Z,5.60
2019-01-20T00:32:46.760Z,4.40
2019-01-20T00:35:15.938Z,4.57
2019-01-20T00:37:44.914Z,5.27
2019-01-20T00:40:18.577Z,4.37
2019-01-20T00:42:46.942Z,5.33
2019-01-20T00:45:17.700Z,4.57
2019-01-20T00:47:46.119Z,6.10
2019-01-20T00:50:15.828Z,5.30
2019-01-20T00:52:44.226Z,5.10
2019-01-20T00:55:17.864Z,4.57
2019-01-20T00:57:46.196Z,4.70
2019-01-20T01:00:24.078Z,4.20
2019-01-20T01:02:52.397Z,4.33
2019-01-20T01:05:20.927Z,5.00
2019-01-20T01:07:50.208Z,4.70
2019-01-20T01:10:18.551Z,4.83
2019-01-20T01:12:47.090Z,5.83
2019-01-20T01:15:15.403Z,5.37
2019-01-20T01:17:43.799Z,4.43
2019-01-20T01:20:14.929Z,4.97
2019-01-20T01:22:43.272Z,4.60
2019-01-20T01:25:14.187Z,4.30
2019-01-20T01:27:42.552Z,3.77
2019-01-20T01:30:16.779Z,5.00
2019-01-20T01:32:45.095Z,4.40
2019-01-20T01:35:13.501Z,4.97
2019-01-20T01:37:41.902Z,5.00
2019-01-20T01:40:13.003Z,5.23
2019-01-20T01:42:41.375Z,4.53
2019-01-20T01:45:15.766Z,4.37
2019-01-20T01:47:44.095Z,5.10
2019-01-20T01:50:14.087Z,4.70
2019-01-20T01:52:42.531Z,4.40
2019-01-20T01:55:11.925Z,4.97
2019-01-20T01:57:40.544Z,4.63
2019-01-20T02:00:12.537Z,4.47
2019-01-20T02:02:40.969Z,4.63
2019-01-20T02:05:09.913Z,5.00
2019-01-20T02:07:38.325Z,5.53
2019-01-20T02:10:15.270Z,4.77
2019-01-20T02:12:43.591Z,4.80
2019-01-20T02:15:14.216Z,4.53
2019-01-20T02:17:43.778Z,5.20
2019-01-20T02:20:15.295Z,4.00
2019-01-20T02:22:43.665Z,4.10
2019-01-20T02:25:12.053Z,5.23
2019-01-20T02:27:40.407Z,4.87
2019-01-20T02:30:14.728Z,4.23
2019-01-20T02:32:42.995Z,3.80
2019-01-20T02:35:11.361Z,4.37
2019-01-20T02:37:39.722Z,3.83
2019-01-20T02:40:11.699Z,4.40
2019-01-20T02:42:40.081Z,4.47
2019-01-20T02:45:11.404Z,5.00
2019-01-20T02:47:39.719Z,3.93
2019-01-20T02:50:11.335Z,4.37
2019-01-20T02:52:39.765Z,5.30
2019-01-20T02:55:08.092Z,4.67
2019-01-20T02:57:36.504Z,4.30
2019-01-20T03:00:08.258Z,4.57
2019-01-20T03:02:36.523Z,4.23
2019-01-20T03:05:08.093Z,4.50
2019-01-20T03:07:36.393Z,4.90
2019-01-20T03:10:07.568Z,5.07
2019-01-20T03:12:36.009Z,5.00
2019-01-20T03:15:07.423Z,5.57
2019-01-20T03:17:35.766Z,4.90
2019-01-20T03:20:07.640Z,3.50
2019-01-20T03:22:36.042Z,5.03
2019-01-20T03:25:06.783Z,4.20
2019-01-20T03:27:35.139Z,4.20
2019-01-20T03:30:05.827Z,5.00
2019-01-20T03:32:34.164Z,5.00
2019-01-20T03:35:02.534Z,5.27
2019-01-20T03:37:30.902Z,4.13
2019-01-20T03:39:59.196Z,5.00
2019-01-20T03:42:27.556Z,4.13
2019-01-20T03:44:56.075Z,5.13
2019-01-20T03:47:24.338Z,4.83
2019-01-20T03:49:52.619Z,5.40
2019-01-20T03:52:21.070Z,6.07
2019-01-20T03:54:49.326Z,4.47
2019-01-20T03:57:17.672Z,5.13
2019-01-20T03:59:48.108Z,4.77
2019-01-20T04:02:18.081Z,4.97
2019-01-20T04:04:46.421Z,4.47
2019-01-20T04:07:14.811Z,5.07
2019-01-20T04:09:43.162Z,4.43
2019-01-20T04:12:11.548Z,4.80
2019-01-20T04:14:39.854Z,5.40
2019-01-20T04:17:08.257Z,5.17
2019-01-20T04:19:36.543Z,5.10
2019-01-20T04:22:04.880Z,4.80
2019-01-20T04:24:33.192Z,5.53
2019-01-20T04:27:01.543Z,5.37
2019-01-20T04:29:29.930Z,4.80
2019-01-20T04:31:58.248Z,4.60
2019-01-20T04:34:26.502Z,4.97
2019-01-20T04:36:54.920Z,4.13
2019-01-20T04:39:23.273Z,5.50
2019-01-20T04:41:51.614Z,4.43
2019-01-20T04:44:19.975Z,4.63
2019-01-20T04:46:48.329Z,4.47
2019-01-20T04:49:16.697Z,4.77
2019-01-20T04:51:45.048Z,5.37
2019-01-20T04:54:14.009Z,5.17
2019-01-20T04:56:42.323Z,4.97
2019-01-20T04:59:10.633Z,5.03
2019-01-20T05:01:38.933Z,4.87
2019-01-20T05:04:07.274Z,5.00
2019-01-20T05:06:35.691Z,6.07
2019-01-20T05:09:05.589Z,4.97
2019-01-20T05:11:33.860Z,5.10
2019-01-20T05:14:02.302Z,6.30
2019-01-20T05:16:30.639Z,4.43
2019-01-20T05:18:58.995Z,5.10
2019-01-20T05:21:27.298Z,6.07
2019-01-20T05:23:55.608Z,5.80
2019-01-20T05:26:24.078Z,4.77
2019-01-20T05:28:52.352Z,5.27
2019-01-20T05:31:20.713Z,4.83
2019-01-20T05:33:49.187Z,5.30
2019-01-20T05:36:17.479Z,4.93
2019-01-20T05:38:45.800Z,5.03
2019-01-20T05:41:14.273Z,5.80
2019-01-20T05:43:42.613Z,4.93
2019-01-20T05:46:10.979Z,4.10
2019-01-20T05:48:39.401Z,5.30
2019-01-20T05:51:07.831Z,4.53
2019-01-20T05:53:36.171Z,5.03
2019-01-20T05:56:04.536Z,4.93
2019-01-20T05:58:33.000Z,4.93
2019-01-20T06:01:01.431Z,4.93
2019-01-20T06:03:29.804Z,4.63
2019-01-20T06:05:58.214Z,4.40
2019-01-20T06:08:26.787Z,5.90
2019-01-20T06:10:55.114Z,5.77
2019-01-20T06:13:23.563Z,4.53
2019-01-20T06:15:51.889Z,4.97
2019-01-20T06:18:20.387Z,4.40
2019-01-20T06:20:48.791Z,5.43
2019-01-20T06:23:17.262Z,5.07
2019-01-20T06:25:45.684Z,5.13
2019-01-20T06:28:13.995Z,4.73
2019-01-20T06:30:42.255Z,5.30
2019-01-20T06:33:10.624Z,4.60
2019-01-20T06:35:38.886Z,4.50
2019-01-20T06:38:07.157Z,4.77
2019-01-20T06:40:35.584Z,5.40
2019-01-20T06:43:03.964Z,4.93
2019-01-20T06:45:39.180Z,5.33
2019-01-20T06:48:07.654Z,5.10
2019-01-20T06:50:36.003Z,5.10
2019-01-20T06:53:04.601Z,5.23
2019-01-20T06:55:32.871Z,4.70
2019-01-20T06:58:01.140Z,4.90
2019-01-20T07:00:29.630Z,6.07
2019-01-20T07:02:58.116Z,4.97
2019-01-20T07:05:26.382Z,5.50
2019-01-20T07:07:55.758Z,4.60
2019-01-20T07:10:39.079Z,5.10
2019-01-20T07:13:10.042Z,4.97
2019-01-20T07:15:37.476Z,5.83
2019-01-20T07:18:05.795Z,4.40
2019-01-20T07:20:34.543Z,4.60
2019-01-20T07:23:03.270Z,6.27
2019-01-20T07:25:31.725Z,4.70
2019-01-20T07:28:00.576Z,5.67
2019-01-20T07:30:29.440Z,6.80
2019-01-20T07:32:57.714Z,5.93
2019-01-20T07:35:26.075Z,5.60
2019-01-20T07:37:54.462Z,5.70
2019-01-20T07:40:22.883Z,6.27
2019-01-20T07:42:51.470Z,6.50
2019-01-20T07:45:20.234Z,5.80
2019-01-20T07:47:48.572Z,5.07
2019-01-20T07:50:19.798Z,5.80
2019-01-20T07:52:48.148Z,5.67
2019-01-20T07:55:16.536Z,6.23
2019-01-20T07:57:45.073Z,6.33
2019-01-20T08:00:16.416Z,5.67
2019-01-20T08:02:44.832Z,5.00
2019-01-20T08:05:13.363Z,6.80
2019-01-20T08:07:41.947Z,6.17
2019-01-20T08:10:22.309Z,5.10
2019-01-20T08:12:50.679Z,6.60
2019-01-20T08:15:19.044Z,6.83
2019-01-20T08:17:47.474Z,6.77
2019-01-20T08:20:22.008Z,8.40
2019-01-20T08:22:50.408Z,6.40
2019-01-20T08:25:19.733Z,8.17
2019-01-20T08:27:48.244Z,7.03
2019-01-20T08:30:20.050Z,6.60
2019-01-20T08:32:48.399Z,7.70
2019-01-20T08:35:16.718Z,7.67
2019-01-20T08:37:45.381Z,5.70
2019-01-20T08:40:16.773Z,7.00
2019-01-20T08:42:45.115Z,7.07
2019-01-20T08:45:16.815Z,5.80
2019-01-20T08:47:48.376Z,5.50
2019-01-20T08:50:16.844Z,6.93
2019-01-20T08:52:45.249Z,6.77
2019-01-20T08:55:14.887Z,6.93
2019-01-20T08:57:43.302Z,7.80
2019-01-20T09:00:14.786Z,7.80
2019-01-20T09:02:44.136Z,7.33
2019-01-20T09:05:13.473Z,8.27
2019-01-20T09:07:41.882Z,9.13
2019-01-20T09:10:19.398Z,8.17
2019-01-20T09:12:48.578Z,8.20
2019-01-20T09:15:17.057Z,11.13
2019-01-20T09:17:47.043Z,9.43
2019-01-20T09:20:15.852Z,9.57
2019-01-20T09:22:45.311Z,7.17
2019-01-20T09:25:14.813Z,9.80
2019-01-20T09:27:43.490Z,8.77
2019-01-20T09:30:23.684Z,9.67
2019-01-20T09:32:52.090Z,8.77
2019-01-20T09:35:20.435Z,9.87
2019-01-20T09:38:03.472Z,12.40
2019-01-20T09:40:34.189Z,9.50
2019-01-20T09:43:07.719Z,10.00
2019-01-20T09:45:37.234Z,9.73
2019-01-20T09:48:11.256Z,11.40
2019-01-20T09:50:39.887Z,9.00
2019-01-20T09:53:18.995Z,10.60
2019-01-20T09:55:49.174Z,10.27
2019-01-20T09:58:19.294Z,9.20
2019-01-20T10:00:47.909Z,8.33
2019-01-20T10:03:16.550Z,8.70
2019-01-20T10:05:48.004Z,9.50
2019-01-20T10:08:17.136Z,10.20
2019-01-20T10:10:48.993Z,8.90
2019-01-20T10:13:18.892Z,9.83
2019-01-20T10:15:52.563Z,9.87
2019-01-20T10:18:24.887Z,9.10
2019-01-20T10:20:54.616Z,9.03
2019-01-20T10:23:33.581Z,8.27
2019-01-20T10:26:03.387Z,8.33
2019-01-20T10:28:32.829Z,8.13
2019-01-20T10:31:01.328Z,8.47
2019-01-20T10:33:29.954Z,8.60
2019-01-20T10:36:02.324Z,8.40
2019-01-20T10:38:30.699Z,7.10
2019-01-20T10:40:58.994Z,7.60
2019-01-20T10:43:28.975Z,7.30
2019-01-20T10:45:57.454Z,8.60
2019-01-20T10:48:26.686Z,7.57
2019-01-20T10:50:55.914Z,6.83
2019-01-20T10:53:24.265Z,8.30
2019-01-20T10:55:52.749Z,8.00
2019-01-20T10:58:21.011Z,7.23
2019-01-20T11:00:49.418Z,6.67
2019-01-20T11:03:18.246Z,6.70
2019-01-20T11:05:46.516Z,7.30
2019-01-20T11:08:14.909Z,6.50
2019-01-20T11:10:43.262Z,5.83
2019-01-20T11:13:11.616Z,7.30
2019-01-20T11:15:40.037Z,6.40
2019-01-20T11:18:08.344Z,6.93
2019-01-20T11:20:36.616Z,7.07
2019-01-20T11:23:05.382Z,7.10
2019-01-20T11:25:37.333Z,8.10
2019-01-20T11:28:05.794Z,10.33
2019-01-20T11:30:34.784Z,7.43
2019-01-20T11:33:05.228Z,6.73
2019-01-20T11:35:34.920Z,6.40
2019-01-20T11:38:03.346Z,7.10
2019-01-20T11:40:31.782Z,6.67
2019-01-20T11:43:00.043Z,8.43
2019-01-20T11:45:31.096Z,9.13
2019-01-20T11:47:59.540Z,6.20
2019-01-20T11:50:27.960Z,7.03
2019-01-20T11:52:56.437Z,6.80
2019-01-20T11:55:25.142Z,8.60
2019-01-20T11:57:53.569Z,8.40
2019-01-20T12:00:28.260Z,10.00
2019-01-20T12:02:59.061Z,6.50
2019-01-20T12:05:27.520Z,7.67
2019-01-20T12:08:01.276Z,6.23
2019-01-20T12:10:29.932Z,7.93
2019-01-20T12:13:00.085Z,7.60
2019-01-20T12:15:29.457Z,7.53
2019-01-20T12:17:57.825Z,7.37
2019-01-20T12:20:27.105Z,6.60
2019-01-20T12:22:55.543Z,5.93
2019-01-20T12:25:23.919Z,6.20
2019-01-20T12:27:52.332Z,6.53
2019-01-20T12:30:29.646Z,6.90
2019-01-20T12:32:58.137Z,6.20
2019-01-20T12:35:26.519Z,6.27
2019-01-20T12:37:54.923Z,8.63
2019-01-20T12:40:26.480Z,6.90
2019-01-20T12:42:54.818Z,8.43
2019-01-20T12:45:23.198Z,8.40
2019-01-20T12:47:51.595Z,7.33
2019-01-20T12:50:19.924Z,7.67
2019-01-20T12:52:48.273Z,6.70
2019-01-20T12:55:16.721Z,8.27
2019-01-20T12:57:45.667Z,7.30
2019-01-20T13:00:18.126Z,8.43
2019-01-20T13:02:46.691Z,8.20
2019-01-20T13:05:15.978Z,7.90
2019-01-20T13:07:48.446Z,7.43
2019-01-20T13:10:19.660Z,8.80
2019-01-20T13:12:48.101Z,9.27
2019-01-20T13:15:19.965Z,12.20
2019-01-20T13:17:48.438Z,9.43
2019-01-20T13:20:23.314Z,9.53
2019-01-20T13:22:52.518Z,8.73
2019-01-20T13:25:24.372Z,9.13
2019-01-20T13:27:53.905Z,9.73
2019-01-20T13:30:25.673Z,10.10
2019-01-20T13:32:54.891Z,9.77
2019-01-20T13:35:23.932Z,10.23
2019-01-20T13:38:02.068Z,10.57
2019-01-20T13:40:33.771Z,9.87
2019-01-20T13:43:03.003Z,10.60
2019-01-20T13:45:31.477Z,11.23
2019-01-20T13:48:00.613Z,10.47
2019-01-20T13:50:29.054Z,13.20
2019-01-20T13:52:57.974Z,13.10
2019-01-20T13:55:26.347Z,11.67
2019-01-20T13:57:54.913Z,12.80
2019-01-20T14:00:26.228Z,12.30
2019-01-20T14:02:55.483Z,11.90
2019-01-20T14:05:24.666Z,10.60
2019-01-20T14:07:53.246Z,11.73
2019-01-20T14:10:23.954Z,10.57
2019-01-20T14:12:52.332Z,12.37
2019-01-20T14:15:20.748Z,11.30
2019-01-20T14:17:49.379Z,11.47
2019-01-20T14:20:28.964Z,11.17
2019-01-20T14:22:57.840Z,11.30
2019-01-20T14:25:29.493Z,11.07
2019-01-20T14:27:57.874Z,11.33
2019-01-20T14:30:29.517Z,13.30
2019-01-20T14:32:57.924Z,12.00
2019-01-20T14:35:26.502Z,10.80
2019-01-20T14:37:55.146Z,12.00
2019-01-20T14:40:23.698Z,13.77
2019-01-20T14:42:53.405Z,10.90
2019-01-20T14:45:22.818Z,12.90
2019-01-20T14:47:53.013Z,11.13
2019-01-20T14:50:28.335Z,12.27
2019-01-20T14:52:57.303Z,13.53
2019-01-20T14:55:26.299Z,14.43
2019-01-20T14:57:56.295Z,13.47
2019-01-20T15:00:36.638Z,14.20
2019-01-20T15:03:07.360Z,12.17
2019-01-20T15:05:35.869Z,13.27
2019-01-20T15:08:06.086Z,15.90
2019-01-20T15:10:34.765Z,14.60
2019-01-20T15:13:03.195Z,13.70
2019-01-20T15:15:34.633Z,14.20
2019-01-20T15:18:03.270Z,12.73
2019-01-20T15:20:31.693Z,13.77
2019-01-20T15:23:02.440Z,12.90
2019-01-20T15:25:30.970Z,12.93
2019-01-20T15:27:59.758Z,11.43
2019-01-20T15:30:32.555Z,12.80
2019-01-20T15:33:03.163Z,12.90
2019-01-20T15:35:31.510Z,13.40
2019-01-20T15:37:59.937Z,13.70
2019-01-20T15:40:28.259Z,13.10
2019-01-20T15:42:59.096Z,13.00
2019-01-20T15:45:27.549Z,13.00
2019-01-20T15:47:55.982Z,12.80
2019-01-20T15:50:31.340Z,12.10
2019-01-20T15:52:59.939Z,13.60
2019-01-20T15:55:28.307Z,12.37
2019-01-20T15:57:56.763Z,13.20
2019-01-20T16:00:28.864Z,13.30
2019-01-20T16:02:57.415Z,13.03
2019-01-20T16:05:26.733Z,12.00
2019-01-20T16:07:55.335Z,13.67
2019-01-20T16:10:25.452Z,12.33
2019-01-20T16:12:55.838Z,13.00
2019-01-20T16:15:29.862Z,13.93
2019-01-20T16:17:58.380Z,13.67
2019-01-20T16:20:28.769Z,14.83
2019-01-20T16:22:57.334Z,14.23
2019-01-20T16:25:31.232Z,13.20
2019-01-20T16:27:59.701Z,14.57
2019-01-20T16:30:30.967Z,16.60
2019-01-20T16:32:59.522Z,15.90
2019-01-20T16:35:27.988Z,14.50
2019-01-20T16:37:58.435Z,15.93
2019-01-20T16:40:27.659Z,15.80
2019-01-20T16:42:56.160Z,15.23
2019-01-20T16:45:32.887Z,16.10
2019-01-20T16:47:58.174Z,15.73
2019-01-20T16:50:26.433Z,15.17
2019-01-20T16:52:56.677Z,15.70
2019-01-20T16:55:25.120Z,19.07
2019-01-20T16:57:54.140Z,18.73
2019-01-20T17:00:28.821Z,21.17
2019-01-20T17:02:57.205Z,17.60
2019-01-20T17:05:27.031Z,20.57
2019-01-20T17:07:55.975Z,19.67
2019-01-20T17:10:29.081Z,16.47
2019-01-20T17:12:58.559Z,16.40
2019-01-20T17:15:30.355Z,17.90
2019-01-20T17:17:58.750Z,15.20
2019-01-20T17:20:27.975Z,16.30
2019-01-20T17:22:56.376Z,14.57
2019-01-20T17:25:24.745Z,17.67
2019-01-20T17:27:53.150Z,17.20
2019-01-20T17:30:27.375Z,16.67
2019-01-20T17:32:55.865Z,17.60
2019-01-20T17:35:24.169Z,17.30
2019-01-20T17:37:52.582Z,17.20
2019-01-20T17:40:26.198Z,18.13
2019-01-20T17:42:54.795Z,19.57
2019-01-20T17:45:30.057Z,16.90
2019-01-20T17:47:58.506Z,17.90
2019-01-20T17:50:31.852Z,17.97
2019-01-20T17:53:00.918Z,17.53
2019-01-20T17:55:29.203Z,15.97
2019-01-20T17:57:58.036Z,16.00
2019-01-20T18:00:36.918Z,15.40
2019-01-20T18:03:08.581Z,16.80
2019-01-20T18:05:37.293Z,16.37
2019-01-20T18:08:05.824Z,18.00
2019-01-20T18:10:34.352Z,19.27
2019-01-20T18:13:02.930Z,17.50
2019-01-20T18:15:32.703Z,17.33
2019-01-20T18:18:02.184Z,17.33
2019-01-20T18:20:32.657Z,18.40
2019-01-20T18:23:01.169Z,18.30
2019-01-20T18:25:29.574Z,17.80
2019-01-20T18:27:58.224Z,16.80
2019-01-20T18:30:31.678Z,18.43
2019-01-20T18:33:00.148Z,17.63
2019-01-20T18:35:29.146Z,17.10
2019-01-20T18:37:57.474Z,17.50
2019-01-20T18:40:26.852Z,17.10
2019-01-20T18:42:55.382Z,18.30
2019-01-20T18:45:26.976Z,17.07
2019-01-20T18:47:55.279Z,17.30
2019-01-20T18:50:32.543Z,17.53
2019-01-20T18:53:01.290Z,19.10
2019-01-20T18:55:30.282Z,17.83
2019-01-20T18:57:59.143Z,18.27
2019-01-20T19:00:30.335Z,14.23
2019-01-20T19:02:58.750Z,18.70
2019-01-20T19:05:30.561Z,17.53
2019-01-20T19:07:59.293Z,17.17
2019-01-20T19:10:27.599Z,16.27
2019-01-20T19:12:56.199Z,17.30
2019-01-20T19:15:24.958Z,18.27
2019-01-20T19:17:53.910Z,19.00
2019-01-20T19:20:25.216Z,17.17
2019-01-20T19:22:56.917Z,16.20
2019-01-20T19:25:25.643Z,17.47
2019-01-20T19:27:54.512Z,18.27
2019-01-20T19:30:29.820Z,17.17
2019-01-20T19:32:59.037Z,19.53
2019-01-20T19:35:28.647Z,17.10
2019-01-20T19:37:59.236Z,17.50
2019-01-20T19:40:31.066Z,16.30
2019-01-20T19:43:00.327Z,17.67
2019-01-20T19:45:33.221Z,17.93
2019-01-20T19:48:04.613Z,18.00
2019-01-20T19:50:36.165Z,19.03
2019-01-20T19:53:06.695Z,18.07
2019-01-20T19:55:37.119Z,17.30
2019-01-20T19:58:08.968Z,17.53
2019-01-20T20:00:40.693Z,19.13
2019-01-20T20:03:10.365Z,18.63
2019-01-20T20:05:39.830Z,17.60
2019-01-20T20:08:09.022Z,18.40
2019-01-20T20:10:38.177Z,18.77
2019-01-20T20:13:06.775Z,15.80
2019-01-20T20:15:35.539Z,17.70
2019-01-20T20:18:04.412Z,17.03
2019-01-20T20:20:32.840Z,17.87
2019-01-20T20:23:01.194Z,21.17
2019-01-20T20:25:29.519Z,18.57
2019-01-20T20:27:58.136Z,18.10
2019-01-20T20:30:29.529Z,18.00
2019-01-20T20:32:57.879Z,19.30
2019-01-20T20:35:26.281Z,20.20
2019-01-20T20:37:54.574Z,16.30
2019-01-20T20:40:23.231Z,18.33
2019-01-20T20:42:51.639Z,17.07
2019-01-20T20:45:22.270Z,17.47
2019-01-20T20:47:50.662Z,15.80
2019-01-20T20:50:19.157Z,16.67
2019-01-20T20:52:50.078Z,16.60
2019-01-20T20:55:18.547Z,16.73
2019-01-20T20:57:46.972Z,18.17
2019-01-20T21:00:18.433Z,17.17
2019-01-20T21:02:46.785Z,17.37
2019-01-20T21:05:16.077Z,19.60
2019-01-20T21:07:47.767Z,17.57
2019-01-20T21:10:35.323Z,18.37
2019-01-20T21:13:10.679Z,16.97
2019-01-20T21:15:46.501Z,19.30
2019-01-20T21:18:25.074Z,17.33
2019-01-20T21:20:53.746Z,17.97
2019-01-20T21:23:22.089Z,20.27
2019-01-20T21:25:50.390Z,18.30
2019-01-20T21:28:19.871Z,16.90
2019-01-20T21:30:48.356Z,17.93
2019-01-20T21:33:16.866Z,18.47
2019-01-20T21:35:48.152Z,15.70
2019-01-20T21:38:21.986Z,19.30
2019-01-20T21:40:50.279Z,19.30
2019-01-20T21:43:18.767Z,17.13
2019-01-20T21:45:48.979Z,18.60
2019-01-20T21:48:18.231Z,17.80
2019-01-20T21:50:48.374Z,19.63
2019-01-20T21:53:17.620Z,19.43
2019-01-20T21:55:45.893Z,19.33
2019-01-20T21:58:14.596Z,19.77
2019-01-20T22:00:42.997Z,17.90
2019-01-20T22:03:11.401Z,26.30
2019-01-20T22:05:40.560Z,15.60
2019-01-20T22:08:09.880Z,18.50
2019-01-20T22:10:38.393Z,16.57
2019-01-20T22:13:07.402Z,19.40
2019-01-20T22:15:36.431Z,18.73
2019-01-20T22:18:06.885Z,16.50
2019-01-20T22:20:36.158Z,16.17
2019-01-20T22:23:06.364Z,17.50
2019-01-20T22:25:35.099Z,18.37
2019-01-20T22:28:03.598Z,16.67
2019-01-20T22:30:33.534Z,16.47
2019-01-20T22:33:02.191Z,16.27
2019-01-20T22:35:33.559Z,17.23
2019-01-20T22:38:02.268Z,17.10
2019-01-20T22:40:31.055Z,17.60
2019-01-20T22:42:59.632Z,18.10
2019-01-20T22:45:28.983Z,18.30
2019-01-20T22:47:57.425Z,15.80
2019-01-20T22:50:26.367Z,17.40
2019-01-20T22:52:56.341Z,18.17
2019-01-20T22:55:24.688Z,20.33
2019-01-20T22:57:54.786Z,20.27
2019-01-20T23:00:40.110Z,16.33
2019-01-20T23:03:08.789Z,16.00
2019-01-20T23:05:37.217Z,17.33
2019-01-20T23:08:05.621Z,19.20
2019-01-20T23:10:33.995Z,17.57
2019-01-20T23:13:02.450Z,17.43
2019-01-20T23:15:30.856Z,16.03
2019-01-20T23:17:59.311Z,16.30
2019-01-20T23:20:28.203Z,18.30
2019-01-20T23:22:56.683Z,16.60
2019-01-20T23:25:25.026Z,18.70
2019-01-20T23:27:53.301Z,18.67
2019-01-20T23:30:21.702Z,17.93
2019-01-20T23:32:49.975Z,17.37
2019-01-20T23:35:18.316Z,19.10
2019-01-20T23:37:46.589Z,16.77
2019-01-20T23:40:18.692Z,17.20
2019-01-20T23:42:47.084Z,18.30
2019-01-20T23:45:15.366Z,18.10
2019-01-20T23:47:43.735Z,17.37
2019-01-20T23:50:17.351Z,17.10
2019-01-20T23:52:45.703Z,18.33
2019-01-20T23:55:14.046Z,19.00
2019-01-20T23:57:42.732Z,18.80
